createdAt,value
2023-05-25T00:03:05.071Z,3.85
2023-05-25T00:07:08.348Z,3.75
2023-05-25T00:11:11.588Z,4.65
2023-05-25T00:15:14.649Z,4.32
2023-05-25T00:19:19.102Z,3.70
2023-05-25T00:23:22.399Z,4.28
2023-05-25T00:27:25.427Z,4.65
2023-05-25T00:31:29.807Z,3.83
2023-05-25T00:35:34.357Z,4.43
2023-05-25T00:39:37.391Z,4.20
2023-05-25T00:43:40.362Z,3.78
2023-05-25T00:47:44.342Z,4.50
2023-05-25T00:51:50.478Z,3.70
2023-05-25T00:55:59.759Z,3.42
2023-05-25T01:00:08.903Z,4.40
2023-05-25T01:04:16.409Z,3.78
2023-05-25T01:08:23.498Z,3.75
2023-05-25T01:12:28.974Z,4.18
2023-05-25T01:16:32.928Z,3.90
2023-05-25T01:20:37.723Z,3.80
2023-05-25T01:24:47.565Z,3.42
2023-05-25T01:28:53.951Z,4.03
2023-05-25T01:32:58.221Z,3.80
2023-05-25T01:37:01.680Z,4.30
2023-05-25T01:41:06.149Z,3.85
2023-05-25T01:45:11.609Z,3.95
2023-05-25T01:49:21.976Z,3.80
2023-05-25T01:53:30.239Z,4.10
2023-05-25T01:57:37.588Z,3.92
2023-05-25T02:01:42.230Z,4.47
2023-05-25T02:05:46.980Z,4.00
2023-05-25T02:09:50.061Z,4.13
2023-05-25T02:13:54.657Z,4.57
2023-05-25T02:17:59.963Z,4.13
2023-05-25T02:22:06.457Z,3.88
2023-05-25T02:26:09.513Z,4.30
2023-05-25T02:30:14.666Z,4.63
2023-05-25T02:34:17.674Z,4.38
2023-05-25T02:38:22.061Z,4.28
2023-05-25T02:42:25.155Z,4.35
2023-05-25T02:46:29.615Z,4.32
2023-05-25T02:50:32.666Z,4.50
2023-05-25T02:54:40.344Z,4.30
2023-05-25T02:58:44.893Z,4.20
2023-05-25T03:02:51.536Z,4.35
2023-05-25T03:06:56.335Z,4.75
2023-05-25T03:10:59.324Z,4.05
2023-05-25T03:15:02.972Z,4.68
2023-05-25T03:19:07.507Z,4.45
2023-05-25T03:23:13.116Z,4.50
2023-05-25T03:27:16.497Z,4.63
2023-05-25T03:31:19.913Z,4.60
2023-05-25T03:35:25.037Z,4.47
2023-05-25T03:39:28.176Z,4.40
2023-05-25T03:43:32.070Z,5.07
2023-05-25T03:47:35.536Z,5.00
2023-05-25T03:51:39.963Z,4.43
2023-05-25T03:55:43.755Z,5.05
2023-05-25T03:59:48.191Z,4.47
2023-05-25T04:03:51.330Z,4.53
2023-05-25T04:07:56.209Z,4.50
2023-05-25T04:11:59.563Z,4.60
2023-05-25T04:16:03.198Z,4.72
2023-05-25T04:20:09.934Z,4.68
2023-05-25T04:24:14.888Z,4.93
2023-05-25T04:28:18.701Z,4.55
2023-05-25T04:32:37.561Z,4.57
2023-05-25T04:37:03.376Z,4.75
2023-05-25T04:41:09.622Z,3.53
2023-05-25T04:45:17.627Z,4.43
2023-05-25T04:49:21.509Z,4.68
2023-05-25T04:53:24.879Z,3.90
2023-05-25T04:57:31.587Z,4.13
2023-05-25T05:01:40.877Z,4.50
2023-05-25T05:05:46.683Z,4.18
2023-05-25T05:09:55.917Z,3.83
2023-05-25T05:14:01.229Z,4.00
2023-05-25T05:18:06.355Z,4.05
2023-05-25T05:22:09.936Z,4.28
2023-05-25T05:26:15.473Z,3.92
2023-05-25T05:30:20.260Z,3.95
2023-05-25T05:34:24.594Z,3.90
2023-05-25T05:38:28.178Z,3.80
2023-05-25T05:42:31.337Z,3.70
2023-05-25T05:46:36.391Z,4.20
2023-05-25T05:50:42.085Z,3.63
2023-05-25T05:54:46.461Z,4.03
2023-05-25T05:58:53.608Z,4.10
2023-05-25T06:02:58.620Z,4.03
2023-05-25T06:07:03.832Z,3.85
2023-05-25T06:11:07.331Z,3.90
2023-05-25T06:15:12.980Z,4.40
2023-05-25T06:19:18.466Z,3.88
2023-05-25T06:23:21.629Z,3.63
2023-05-25T06:27:24.849Z,3.50
2023-05-25T06:31:28.644Z,4.28
2023-05-25T06:35:33.256Z,4.05
2023-05-25T06:39:36.574Z,3.95
2023-05-25T06:43:40.018Z,4.07
2023-05-25T06:47:49.667Z,4.00
2023-05-25T06:51:54.462Z,3.80
2023-05-25T06:55:57.675Z,4.15
2023-05-25T07:00:00.854Z,3.22
2023-05-25T07:04:04.014Z,4.03
2023-05-25T07:08:08.650Z,3.08
2023-05-25T07:12:12.020Z,3.60
2023-05-25T07:16:15.237Z,3.80
2023-05-25T07:20:19.171Z,3.45
2023-05-25T07:24:23.741Z,4.25
2023-05-25T07:28:26.947Z,4.03
2023-05-25T07:32:30.179Z,4.00
2023-05-25T07:36:33.376Z,3.90
2023-05-25T07:40:38.005Z,3.70
2023-05-25T07:44:41.140Z,4.20
2023-05-25T07:48:44.263Z,3.70
2023-05-25T07:52:47.891Z,3.85
2023-05-25T07:56:52.526Z,3.70
2023-05-25T08:00:56.339Z,3.45
2023-05-25T08:05:00.019Z,3.97
2023-05-25T08:09:04.932Z,3.30
2023-05-25T08:13:09.657Z,3.47
2023-05-25T08:17:12.905Z,3.20
2023-05-25T08:21:16.033Z,3.45
2023-05-25T08:25:19.251Z,3.63
2023-05-25T08:29:23.824Z,3.20
2023-05-25T08:33:26.903Z,3.50
2023-05-25T08:37:30.631Z,3.85
2023-05-25T08:41:36.007Z,3.88
2023-05-25T08:45:49.361Z,3.50
2023-05-25T08:49:54.954Z,3.20
2023-05-25T08:54:03.431Z,3.58
2023-05-25T08:58:16.248Z,3.33
2023-05-25T09:02:31.424Z,3.08
2023-05-25T09:06:38.639Z,3.20
2023-05-25T09:10:42.329Z,3.45
2023-05-25T09:14:48.075Z,3.42
2023-05-25T09:18:54.140Z,4.00
2023-05-25T09:22:57.323Z,3.10
2023-05-25T09:27:01.093Z,3.40
2023-05-25T09:31:04.241Z,3.40
2023-05-25T09:35:13.081Z,3.03
2023-05-25T09:39:17.171Z,3.50
2023-05-25T09:43:36.349Z,3.22
2023-05-25T09:47:43.512Z,3.10
2023-05-25T09:51:49.183Z,3.45
2023-05-25T09:55:54.459Z,3.10
2023-05-25T09:59:58.216Z,3.42
2023-05-25T10:04:05.248Z,3.30
2023-05-25T10:08:11.695Z,3.20
2023-05-25T10:12:18.836Z,2.80
2023-05-25T10:16:29.703Z,2.88
2023-05-25T10:20:35.288Z,2.90
2023-05-25T10:24:46.632Z,3.10
2023-05-25T10:28:52.519Z,3.13
2023-05-25T10:32:57.120Z,2.90
2023-05-25T10:37:01.698Z,3.10
2023-05-25T10:41:07.166Z,3.40
2023-05-25T10:45:11.465Z,3.08
2023-05-25T10:49:14.501Z,3.47
2023-05-25T10:53:17.571Z,3.13
2023-05-25T10:57:24.103Z,3.58
2023-05-25T11:01:27.321Z,3.67
2023-05-25T11:05:41.577Z,3.15
2023-05-25T11:09:57.264Z,3.00
2023-05-25T11:14:03.446Z,3.60
2023-05-25T11:18:07.092Z,3.60
2023-05-25T11:22:20.479Z,3.63
2023-05-25T11:26:24.820Z,3.42
2023-05-25T11:30:29.618Z,2.92
2023-05-25T11:34:33.256Z,2.72
2023-05-25T11:38:56.327Z,3.75
2023-05-25T11:43:09.270Z,3.40
2023-05-25T11:47:14.589Z,3.42
2023-05-25T11:51:17.665Z,3.50
2023-05-25T11:55:22.578Z,3.80
2023-05-25T11:59:27.703Z,3.40
2023-05-25T12:03:32.934Z,3.17
2023-05-25T12:07:36.727Z,2.72
2023-05-25T12:11:45.681Z,2.97
2023-05-25T12:15:48.909Z,2.60
2023-05-25T12:19:52.202Z,2.72
2023-05-25T12:23:55.874Z,3.10
2023-05-25T12:28:13.139Z,2.50
2023-05-25T12:32:16.533Z,2.90
2023-05-25T12:36:19.676Z,2.80
2023-05-25T12:40:24.687Z,2.53
2023-05-25T12:44:31.549Z,2.60
2023-05-25T12:48:34.646Z,2.67
2023-05-25T12:52:38.954Z,2.70
2023-05-25T12:56:55.016Z,2.55
2023-05-25T13:00:59.560Z,2.83
2023-05-25T13:05:02.680Z,2.58
2023-05-25T13:09:06.166Z,2.65
2023-05-25T13:13:09.152Z,2.33
2023-05-25T13:17:13.877Z,2.60
2023-05-25T13:21:17.168Z,2.47
2023-05-25T13:25:22.221Z,2.70
2023-05-25T13:29:25.705Z,2.75
2023-05-25T13:33:30.172Z,2.60
2023-05-25T13:37:33.966Z,2.83
2023-05-25T13:41:36.986Z,2.90
2023-05-25T13:45:39.991Z,2.95
2023-05-25T13:49:44.350Z,2.50
2023-05-25T13:53:48.941Z,3.08
2023-05-25T13:57:52.926Z,2.80
2023-05-25T14:01:56.607Z,2.97
2023-05-25T14:06:01.067Z,2.60
2023-05-25T14:10:04.606Z,2.80
2023-05-25T14:14:13.855Z,2.90
2023-05-25T14:18:22.961Z,2.83
2023-05-25T14:22:27.993Z,3.10
2023-05-25T14:26:30.976Z,3.70
2023-05-25T14:30:33.918Z,2.85
2023-05-25T14:34:36.915Z,2.80
2023-05-25T14:38:41.237Z,2.50
2023-05-25T14:42:44.213Z,2.63
2023-05-25T14:46:47.227Z,2.50
2023-05-25T14:50:50.434Z,2.75
2023-05-25T14:54:54.749Z,3.17
2023-05-25T14:58:57.668Z,3.13
2023-05-25T15:03:00.845Z,3.05
2023-05-25T15:07:03.904Z,2.80
2023-05-25T15:11:08.620Z,2.70
2023-05-25T15:15:12.302Z,3.08
2023-05-25T15:19:17.729Z,3.22
2023-05-25T15:23:21.186Z,2.70
2023-05-25T15:27:26.260Z,3.40
2023-05-25T15:31:29.249Z,3.35
2023-05-25T15:35:32.525Z,3.10
2023-05-25T15:39:35.632Z,3.30
2023-05-25T15:43:39.954Z,3.20
2023-05-25T15:47:42.923Z,3.03
2023-05-25T15:51:46.238Z,2.97
2023-05-25T15:55:49.384Z,2.83
2023-05-25T15:59:53.715Z,3.45
2023-05-25T16:03:56.694Z,3.05
2023-05-25T16:07:59.684Z,3.00
2023-05-25T16:12:02.795Z,2.85
2023-05-25T16:16:07.973Z,3.15
2023-05-25T16:20:11.454Z,3.20
2023-05-25T16:24:14.524Z,3.28
2023-05-25T16:28:17.616Z,2.70
2023-05-25T16:32:21.946Z,2.67
2023-05-25T16:36:26.670Z,3.05
2023-05-25T16:40:30.211Z,2.65
2023-05-25T16:44:33.133Z,2.47
2023-05-25T16:48:37.437Z,3.10
2023-05-25T16:52:40.690Z,2.70
2023-05-25T16:56:43.645Z,3.03
2023-05-25T17:00:46.606Z,2.92
2023-05-25T17:04:51.010Z,2.58
2023-05-25T17:08:55.671Z,2.58
2023-05-25T17:12:58.665Z,3.00
2023-05-25T17:17:01.652Z,2.70
2023-05-25T17:21:06.211Z,2.60
2023-05-25T17:25:10.004Z,2.63
2023-05-25T17:29:13.065Z,2.63
2023-05-25T17:33:16.204Z,3.22
2023-05-25T17:37:21.262Z,3.05
2023-05-25T17:41:24.335Z,2.90
2023-05-25T17:45:27.590Z,3.08
2023-05-25T17:49:30.600Z,2.70
2023-05-25T17:53:34.880Z,2.60
2023-05-25T17:57:37.912Z,2.78
2023-05-25T18:01:41.790Z,2.80
2023-05-25T18:05:45.102Z,3.13
2023-05-25T18:09:49.728Z,2.92
2023-05-25T18:13:52.684Z,2.80
2023-05-25T18:17:55.725Z,2.90
2023-05-25T18:21:58.941Z,3.00
2023-05-25T18:26:04.640Z,3.30
2023-05-25T18:30:09.051Z,2.70
2023-05-25T18:34:12.146Z,3.03
2023-05-25T18:38:15.189Z,3.15
2023-05-25T18:42:19.496Z,2.72
2023-05-25T18:46:22.964Z,3.00
2023-05-25T18:50:25.933Z,3.00
2023-05-25T18:54:29.664Z,3.10
2023-05-25T18:58:33.985Z,3.35
2023-05-25T19:02:38.611Z,3.33
2023-05-25T19:06:41.665Z,3.55
2023-05-25T19:10:44.693Z,3.60
2023-05-25T19:14:49.104Z,3.38
2023-05-25T19:18:52.037Z,3.50
2023-05-25T19:22:55.164Z,3.40
2023-05-25T19:26:58.113Z,3.38
2023-05-25T19:31:02.548Z,3.42
2023-05-25T19:35:05.971Z,3.42
2023-05-25T19:39:08.942Z,3.33
2023-05-25T19:43:12.008Z,3.13
2023-05-25T19:47:17.483Z,3.60
2023-05-25T19:51:20.618Z,3.28
2023-05-25T19:55:23.906Z,3.03
2023-05-25T19:59:28.083Z,3.53
2023-05-25T20:03:32.964Z,3.72
2023-05-25T20:07:36.277Z,3.92
2023-05-25T20:11:39.377Z,3.67
2023-05-25T20:15:42.420Z,3.38
2023-05-25T20:19:47.976Z,3.83
2023-05-25T20:23:51.714Z,3.92
2023-05-25T20:27:54.653Z,4.25
2023-05-25T20:31:57.728Z,4.13
2023-05-25T20:36:02.112Z,4.13
2023-05-25T20:40:06.716Z,3.80
2023-05-25T20:44:10.107Z,3.83
2023-05-25T20:48:13.109Z,4.30
2023-05-25T20:52:17.494Z,3.90
2023-05-25T20:56:20.468Z,4.10
2023-05-25T21:00:23.765Z,4.40
2023-05-25T21:04:26.761Z,4.57
2023-05-25T21:08:31.969Z,3.90
2023-05-25T21:12:35.540Z,4.07
2023-05-25T21:16:38.648Z,4.00
2023-05-25T21:20:41.830Z,4.30
2023-05-25T21:24:46.427Z,4.32
2023-05-25T21:28:49.406Z,4.55
2023-05-25T21:32:52.817Z,4.00
2023-05-25T21:36:56.137Z,4.05
2023-05-25T21:41:00.496Z,4.30
2023-05-25T21:45:03.726Z,3.92
2023-05-25T21:49:06.746Z,4.30
2023-05-25T21:53:09.717Z,4.40
2023-05-25T21:57:13.994Z,4.95
2023-05-25T22:01:17.118Z,4.70
2023-05-25T22:05:20.157Z,5.18
2023-05-25T22:09:23.115Z,5.03
2023-05-25T22:13:27.409Z,4.88
2023-05-25T22:17:30.449Z,4.80
2023-05-25T22:21:33.452Z,5.20
2023-05-25T22:25:36.618Z,4.85
2023-05-25T22:29:41.130Z,5.22
2023-05-25T22:33:44.267Z,5.30
2023-05-25T22:37:47.435Z,4.97
2023-05-25T22:41:50.405Z,5.10
2023-05-25T22:45:55.101Z,5.28
2023-05-25T22:49:58.038Z,5.45
2023-05-25T22:54:00.997Z,5.82
2023-05-25T22:58:04.023Z,5.60
2023-05-25T23:02:08.508Z,5.68
2023-05-25T23:06:11.607Z,6.25
2023-05-25T23:10:14.618Z,6.18
2023-05-25T23:14:17.621Z,6.00
2023-05-25T23:18:21.934Z,6.22
2023-05-25T23:22:24.920Z,6.97
2023-05-25T23:26:28.105Z,6.07
2023-05-25T23:30:31.104Z,6.00
2023-05-25T23:34:35.841Z,6.38
2023-05-25T23:38:38.804Z,6.47
2023-05-25T23:42:45.513Z,6.35
2023-05-25T23:46:48.585Z,6.72
2023-05-25T23:50:52.960Z,6.75
2023-05-25T23:54:55.955Z,7.13
2023-05-25T23:58:59.010Z,6.43
